Time;durP1;ratioP1;P1;durP2;ratioP2;P2;SDS_P1;SDS_P2;PMS_P1;PMS_P2;Temp;Humidity;BMP_temperature;BMP_pressure;BME280_temperature;BME280_humidity;BME280_pressure;Samples;Min_cycle;Max_cycle;Signal;HPM_P1;HPM_P2
2021/01/10 00:00:27;;;;;;;12.05;6.55;;;;;;;0.59;82.54;97004.28;4971786;28;20671;-73
2021/01/10 00:02:54;;;;;;;13.50;6.10;;;;;;;0.70;82.15;96999.84;4972999;28;20703;-74
2021/01/10 00:05:24;;;;;;;14.50;6.90;;;;;;;0.67;81.87;96994.75;4970994;28;20612;-73
2021/01/10 00:07:52;;;;;;;12.23;6.88;;;;;;;0.62;81.73;96996.56;4968394;28;20613;-73
2021/01/10 00:10:20;;;;;;;14.27;7.47;;;;;;;0.56;82.04;96973.63;4970547;28;20284;-73
2021/01/10 00:12:47;;;;;;;17.77;8.15;;;;;;;0.58;82.01;96982.09;4973493;28;20237;-73
2021/01/10 00:15:15;;;;;;;14.05;7.05;;;;;;;0.63;81.81;96985.44;4961722;28;20745;-73
2021/01/10 00:17:45;;;;;;;12.63;6.55;;;;;;;0.61;81.87;96974.34;4964176;28;20198;-73
2021/01/10 00:20:13;;;;;;;12.75;6.78;;;;;;;0.73;81.80;96983.53;4956895;28;20234;-73
2021/01/10 00:22:41;;;;;;;10.57;5.93;;;;;;;0.72;81.18;96985.28;4966212;28;20629;-72
2021/01/10 00:25:10;;;;;;;13.55;6.43;;;;;;;0.70;81.74;96979.34;4970545;28;20518;-72
2021/01/10 00:27:40;;;;;;;14.90;6.60;;;;;;;0.74;81.46;96988.66;4967435;28;20225;-68
2021/01/10 00:30:09;;;;;;;13.00;6.50;;;;;;;0.66;82.33;96971.75;4966410;28;20646;-68
2021/01/10 00:32:40;;;;;;;12.38;6.30;;;;;;;0.69;82.18;96972.53;4972840;28;20692;-68
2021/01/10 00:35:09;;;;;;;16.27;7.35;;;;;;;0.69;82.11;96972.53;4967958;28;20663;-68
2021/01/10 00:37:36;;;;;;;11.98;6.63;;;;;;;0.59;82.32;96976.09;4972236;28;20715;-69
2021/01/10 00:40:05;;;;;;;11.05;5.85;;;;;;;0.52;82.77;96974.53;4966585;28;20297;-67
2021/01/10 00:42:32;;;;;;;10.80;5.72;;;;;;;0.56;82.96;96981.28;4968795;28;20198;-68
2021/01/10 00:45:01;;;;;;;12.27;6.03;;;;;;;0.48;82.70;96977.16;4967695;28;20268;-69
2021/01/10 00:47:28;;;;;;;24.10;6.70;;;;;;;0.47;83.02;96981.44;4971339;28;20660;-68
2021/01/10 00:49:55;;;;;;;11.70;6.20;;;;;;;0.50;82.87;96981.41;4971648;28;20308;-69
2021/01/10 00:52:22;;;;;;;10.88;6.40;;;;;;;0.50;82.73;96991.63;4971752;28;20635;-69
2021/01/10 00:54:49;;;;;;;13.40;6.32;;;;;;;0.54;82.74;96988.13;4967684;28;20615;-69
2021/01/10 00:57:17;;;;;;;12.23;6.32;;;;;;;0.47;82.74;96983.16;4968158;28;20198;-69
2021/01/10 00:59:43;;;;;;;10.10;5.25;;;;;;;0.54;83.04;96997.56;4958223;28;20661;-69
2021/01/10 01:02:12;;;;;;;12.55;6.88;;;;;;;0.49;82.68;96992.50;4966918;28;20721;-69
2021/01/10 01:04:39;;;;;;;14.43;6.95;;;;;;;0.45;83.03;96998.53;4970613;28;20255;-68
2021/01/10 01:07:06;;;;;;;14.77;7.13;;;;;;;0.51;83.24;96992.47;4970247;28;20586;-70
2021/01/10 01:09:33;;;;;;;12.60;6.43;;;;;;;0.52;82.81;96995.00;4967181;28;20218;-69
2021/01/10 01:12:04;;;;;;;12.98;6.43;;;;;;;0.39;82.98;96987.56;4971986;28;20546;-69
2021/01/10 01:14:32;;;;;;;10.88;6.80;;;;;;;0.46;83.05;97001.97;4966760;28;20743;-75
2021/01/10 01:17:00;;;;;;;11.48;6.15;;;;;;;0.52;82.67;97007.81;4973035;28;20645;-70
2021/01/10 01:19:27;;;;;;;16.98;6.40;;;;;;;0.49;82.71;97012.13;4966918;28;20660;-70
2021/01/10 01:21:54;;;;;;;13.80;6.90;;;;;;;0.32;83.66;96997.03;4971194;28;20680;-70
2021/01/10 01:24:21;;;;;;;20.40;7.55;;;;;;;0.44;83.82;97022.44;4965540;28;20256;-68
2021/01/10 01:26:49;;;;;;;11.32;6.13;;;;;;;0.33;83.66;97006.44;4967956;28;20981;-69
2021/01/10 01:29:16;;;;;;;17.20;7.80;;;;;;;0.41;83.54;97019.94;4968769;28;20263;-69
2021/01/10 01:31:43;;;;;;;13.48;7.22;;;;;;;0.46;82.97;97020.69;4963825;28;20602;-69
2021/01/10 01:34:18;;;;;;;14.65;7.60;;;;;;;0.53;82.84;97018.91;4960961;28;20576;-70
2021/01/10 01:36:45;;;;;;;12.10;6.78;;;;;;;0.59;82.92;97021.38;4972686;28;20209;-69
2021/01/10 01:39:11;;;;;;;12.68;6.68;;;;;;;0.59;82.54;97024.75;4970993;28;20292;-69
2021/01/10 01:41:38;;;;;;;17.08;7.63;;;;;;;0.57;82.57;97020.53;4970487;28;20827;-69
2021/01/10 01:44:06;;;;;;;12.73;6.15;;;;;;;0.54;83.01;97026.53;4970021;28;20766;-69
2021/01/10 01:46:42;;;;;;;16.50;7.72;;;;;;;0.47;83.58;97034.34;4967896;28;20277;-70
2021/01/10 01:49:11;;;;;;;12.88;6.75;;;;;;;0.52;82.85;97035.97;4968449;28;20308;-70
2021/01/10 01:51:39;;;;;;;12.52;7.25;;;;;;;0.53;82.77;97032.53;4963603;28;20651;-70
2021/01/10 01:54:07;;;;;;;15.43;7.50;;;;;;;0.56;82.27;97027.38;4966302;28;20675;-69
2021/01/10 01:56:36;;;;;;;13.68;7.43;;;;;;;0.54;82.57;97034.22;4972190;28;20663;-68
2021/01/10 01:59:05;;;;;;;16.98;7.25;;;;;;;0.50;82.70;97037.72;4967781;28;20738;-68
2021/01/10 02:01:34;;;;;;;13.35;8.15;;;;;;;0.50;83.02;97032.59;4968929;28;20202;-68
2021/01/10 02:04:10;;;;;;;15.07;7.70;;;;;;;0.49;82.59;97036.03;4967482;28;20641;-69
2021/01/10 02:06:50;;;;;;;12.57;7.35;;;;;;;0.47;82.59;97031.78;4971852;28;20206;-68
2021/01/10 02:09:18;;;;;;;13.60;7.28;;;;;;;0.49;82.68;97030.91;4970475;28;20311;-67
2021/01/10 02:11:50;;;;;;;12.48;6.38;;;;;;;0.44;82.60;97036.97;4966674;28;20268;-68
2021/01/10 02:14:21;;;;;;;9.63;6.05;;;;;;;0.50;82.44;97027.47;4964820;28;20223;-68
2021/01/10 02:16:49;;;;;;;10.85;6.40;;;;;;;0.45;83.06;97029.25;4963648;28;20596;-68
2021/01/10 02:19:21;;;;;;;12.38;7.13;;;;;;;0.45;82.79;97019.00;4964893;28;20214;-75
2021/01/10 02:21:53;;;;;;;11.82;6.82;;;;;;;0.46;82.52;97030.94;4956546;28;20611;-70
2021/01/10 02:24:21;;;;;;;13.38;6.40;;;;;;;0.41;82.90;97022.50;4964603;28;20608;-69
2021/01/10 02:26:49;;;;;;;12.15;6.72;;;;;;;0.47;82.91;97024.94;4964482;28;20226;-71
2021/01/10 02:29:17;;;;;;;12.88;6.40;;;;;;;0.44;82.60;97027.56;4965058;28;20269;-70
2021/01/10 02:31:46;;;;;;;11.63;7.07;;;;;;;0.44;82.40;97032.69;4955507;28;20622;-68
2021/01/10 02:34:16;;;;;;;13.63;5.95;;;;;;;0.40;82.56;97014.84;4967001;28;20692;-70
2021/01/10 02:36:56;;;;;;;12.02;6.43;;;;;;;0.47;82.91;97029.25;4962674;28;20206;-69
2021/01/10 02:39:31;;;;;;;14.80;6.78;;;;;;;0.46;82.93;97030.94;4969710;28;20570;-68
2021/01/10 02:42:07;;;;;;;12.95;6.50;;;;;;;0.47;82.78;97019.81;4968431;28;20613;-69
2021/01/10 02:44:38;;;;;;;14.73;6.30;;;;;;;0.45;82.69;97023.31;4973118;28;20280;-70
2021/01/10 02:47:07;;;;;;;9.90;6.38;;;;;;;0.35;83.05;97002.13;4973847;28;20706;-69
2021/01/10 02:49:34;;;;;;;11.25;6.18;;;;;;;0.48;82.83;97018.13;4968828;28;20596;-69
2021/01/10 02:52:02;;;;;;;11.23;6.50;;;;;;;0.47;83.23;97017.25;4971576;28;20833;-69
2021/01/10 02:54:30;;;;;;;11.35;6.63;;;;;;;0.46;82.96;97020.69;4969127;28;20919;-69
2021/01/10 02:57:02;;;;;;;11.20;5.82;;;;;;;0.49;82.52;97015.56;4969025;28;20579;-69
2021/01/10 02:59:33;;;;;;;11.52;6.05;;;;;;;0.50;82.49;97014.69;4971614;28;20789;-69
2021/01/10 03:02:04;;;;;;;13.52;6.85;;;;;;;0.50;81.46;97016.38;4968654;28;20218;-69
2021/01/10 03:04:31;;;;;;;12.00;6.50;;;;;;;0.22;82.76;97012.59;4967824;28;20693;-69
2021/01/10 03:07:00;;;;;;;8.98;5.45;;;;;;;0.20;82.67;97001.50;4968856;28;20311;-69
2021/01/10 03:09:28;;;;;;;20.63;7.22;;;;;;;0.31;82.45;97008.16;4971176;28;20712;-69
2021/01/10 03:11:56;;;;;;;10.25;5.70;;;;;;;0.33;82.56;96998.75;4973629;28;20609;-68
2021/01/10 03:14:22;;;;;;;13.73;6.45;;;;;;;0.38;82.80;97004.63;4973970;28;20699;-69
2021/01/10 03:16:51;;;;;;;10.63;6.30;;;;;;;0.43;82.41;96997.72;4966998;28;20198;-69
2021/01/10 03:19:17;;;;;;;14.18;6.57;;;;;;;0.42;82.79;96995.19;4972849;28;20222;-70
2021/01/10 03:21:44;;;;;;;13.25;6.25;;;;;;;0.44;83.25;96996.84;4974024;28;20495;-73
2021/01/10 03:24:12;;;;;;;11.25;5.60;;;;;;;0.48;82.57;96987.41;4972302;28;20552;-68
2021/01/10 03:26:39;;;;;;;13.40;6.10;;;;;;;0.50;82.67;96981.41;4971078;28;20234;-68
2021/01/10 03:29:07;;;;;;;12.20;6.10;;;;;;;0.44;82.82;96981.50;4973157;28;20230;-68
2021/01/10 03:31:34;;;;;;;14.60;6.95;;;;;;;0.41;83.09;96990.94;4972613;28;20239;-69
2021/01/10 03:34:02;;;;;;;11.35;6.75;;;;;;;0.38;82.68;96979.03;4968863;28;20241;-69
2021/01/10 03:36:28;;;;;;;12.95;6.32;;;;;;;0.27;83.08;96993.72;4974110;28;20565;-70
2021/01/10 03:38:56;;;;;;;13.95;6.18;;;;;;;0.27;83.23;96983.50;4972317;28;20661;-69
2021/01/10 03:41:29;;;;;;;13.68;6.90;;;;;;;0.21;82.91;96980.16;4966656;28;20743;-69
2021/01/10 03:43:56;;;;;;;11.27;6.35;;;;;;;0.19;82.95;96976.78;4971532;28;20245;-69
2021/01/10 03:46:26;;;;;;;10.65;5.65;;;;;;;0.21;83.10;96975.03;4971770;28;20585;-69
2021/01/10 03:48:54;;;;;;;12.45;5.90;;;;;;;0.18;83.22;96981.09;4971297;28;20660;-69
2021/01/10 03:51:26;;;;;;;13.00;6.00;;;;;;;0.14;83.19;96987.09;4971247;28;20249;-68
2021/01/10 03:53:53;;;;;;;10.85;5.68;;;;;;;0.17;83.29;96987.03;4971473;28;20221;-69
2021/01/10 03:56:20;;;;;;;8.98;5.68;;;;;;;0.11;83.22;96992.28;4970379;28;20494;-69
2021/01/10 03:58:47;;;;;;;11.93;6.13;;;;;;;0.07;83.61;96988.06;4972593;28;20205;-68
2021/01/10 04:01:14;;;;;;;10.82;6.03;;;;;;;-0.07;83.71;96984.03;4966228;28;20200;-68
2021/01/10 04:03:41;;;;;;;11.70;5.85;;;;;;;-0.01;84.08;96992.47;4967848;28;20205;-69
2021/01/10 04:06:08;;;;;;;13.30;5.20;;;;;;;0.07;84.02;96989.75;4972416;28;20229;-69
2021/01/10 04:08:35;;;;;;;14.02;7.15;;;;;;;0.09;84.12;96993.16;4974110;28;20203;-69
2021/01/10 04:11:02;;;;;;;10.63;5.70;;;;;;;-0.01;84.33;96987.34;4971647;28;20202;-69
2021/01/10 04:13:29;;;;;;;15.55;7.60;;;;;;;-0.02;84.20;96988.22;4966743;28;20935;-69
2021/01/10 04:15:56;;;;;;;14.13;6.55;;;;;;;-0.05;84.19;96990.78;4968922;28;20218;-69
2021/01/10 04:18:25;;;;;;;13.40;6.07;;;;;;;-0.08;84.48;96995.09;4969798;28;20197;-68
2021/01/10 04:20:53;;;;;;;13.00;6.22;;;;;;;-0.10;84.85;96996.03;4969883;28;20245;-68
2021/01/10 04:23:20;;;;;;;17.08;7.80;;;;;;;-0.09;84.69;96998.53;4969904;28;20601;-68
2021/01/10 04:25:49;;;;;;;10.50;6.35;;;;;;;-0.03;84.59;96994.19;4969329;28;20311;-72
2021/01/10 04:28:16;;;;;;;12.75;7.00;;;;;;;-0.03;84.20;96992.50;4968844;28;20264;-69
2021/01/10 04:30:43;;;;;;;9.40;5.63;;;;;;;-0.06;84.55;97004.47;4965377;28;20765;-69
2021/01/10 04:33:10;;;;;;;13.02;6.60;;;;;;;-0.07;84.08;96995.09;4968054;28;20581;-69
2021/01/10 04:35:38;;;;;;;14.27;7.35;;;;;;;-0.18;83.85;96972.25;4971010;28;20264;-69
2021/01/10 04:38:06;;;;;;;13.98;6.65;;;;;;;-0.24;84.27;96995.38;4970668;28;20788;-70
2021/01/10 04:40:33;;;;;;;16.85;6.22;;;;;;;-0.33;84.69;96995.47;4966676;28;20617;-69
2021/01/10 04:43:02;;;;;;;15.57;6.57;;;;;;;-0.38;84.95;96995.53;4969735;28;20526;-69
2021/01/10 04:45:29;;;;;;;13.48;6.80;;;;;;;-0.44;84.43;96994.78;4967580;28;20225;-69
2021/01/10 04:47:57;;;;;;;15.30;7.75;;;;;;;-0.42;84.68;96987.94;4968138;28;20265;-69
2021/01/10 04:50:26;;;;;;;12.57;6.65;;;;;;;-0.52;84.74;96999.16;4966962;28;20269;-70
2021/01/10 04:52:56;;;;;;;16.38;6.90;;;;;;;-0.56;84.58;97005.16;4968160;28;20202;-70
2021/01/10 04:55:25;;;;;;;17.67;6.32;;;;;;;-0.64;85.20;97002.72;4968811;28;20218;-70
2021/01/10 04:58:01;;;;;;;21.40;7.63;;;;;;;-0.66;85.06;96998.47;4968002;28;20203;-69
2021/01/10 05:00:30;;;;;;;15.27;7.35;;;;;;;-0.73;85.00;96999.41;4966550;28;20863;-71
2021/01/10 05:03:04;;;;;;;11.50;6.68;;;;;;;-0.80;85.29;97002.91;4970646;28;20603;-70
2021/01/10 05:05:34;;;;;;;13.93;7.03;;;;;;;-0.83;85.75;97005.50;4959296;28;20230;-70
2021/01/10 05:08:06;;;;;;;12.73;6.45;;;;;;;-0.85;85.42;97007.22;4957832;28;20703;-70
2021/01/10 05:10:34;;;;;;;14.93;7.05;;;;;;;-0.91;85.42;96999.63;4967909;28;20384;-69
2021/01/10 05:13:02;;;;;;;12.40;6.57;;;;;;;-1.17;85.83;96978.63;4970695;28;20233;-69
2021/01/10 05:15:28;;;;;;;13.95;6.82;;;;;;;-1.07;85.60;97005.75;4963818;28;20312;-69
2021/01/10 05:17:58;;;;;;;13.35;6.78;;;;;;;-1.15;85.94;97012.66;4968944;28;20285;-69
2021/01/10 05:20:26;;;;;;;15.63;7.00;;;;;;;-1.21;86.20;97011.00;4969816;28;20248;-69
2021/01/10 05:22:53;;;;;;;10.75;6.60;;;;;;;-1.23;85.90;97012.75;4967573;28;20629;-70
2021/01/10 05:25:20;;;;;;;14.15;7.05;;;;;;;-1.22;85.94;97008.47;4967841;28;20286;-70
2021/01/10 05:27:52;;;;;;;18.33;8.05;;;;;;;-1.27;86.02;97007.69;4966052;28;20382;-69
2021/01/10 05:30:27;;;;;;;14.48;6.85;;;;;;;-1.34;86.34;97006.06;4967212;28;20622;-73
2021/01/10 05:33:01;;;;;;;14.35;7.35;;;;;;;-1.40;86.34;97016.31;4968021;28;20567;-70
2021/01/10 05:35:29;;;;;;;12.50;6.82;;;;;;;-1.40;86.28;97012.03;4971259;28;20256;-69
2021/01/10 05:37:58;;;;;;;13.85;6.47;;;;;;;-1.42;86.39;97008.66;4968572;28;20631;-69
2021/01/10 05:40:30;;;;;;;21.25;7.80;;;;;;;-1.52;86.28;97016.41;4963561;28;20232;-69
2021/01/10 05:43:07;;;;;;;14.23;7.70;;;;;;;-1.55;86.44;97011.34;4971036;28;20197;-69
2021/01/10 05:45:35;;;;;;;13.75;7.28;;;;;;;-1.52;86.54;97008.75;4967375;28;20872;-69
2021/01/10 05:48:16;;;;;;;14.15;7.65;;;;;;;-1.57;87.17;97013.03;4967894;28;20858;-69
2021/01/10 05:50:47;;;;;;;12.25;7.20;;;;;;;-1.47;87.49;97007.03;4968150;28;20751;-69
2021/01/10 05:53:16;;;;;;;24.58;10.75;;;;;;;-1.34;87.68;97016.25;4969400;28;20699;-69
2021/01/10 05:55:54;;;;;;;29.90;12.15;;;;;;;-1.33;87.17;96998.34;4956914;28;20273;-69
2021/01/10 05:58:23;;;;;;;17.23;8.85;;;;;;;-1.23;87.47;97009.34;4971811;28;20843;-69
2021/01/10 06:00:52;;;;;;;16.05;8.00;;;;;;;-1.14;87.51;97024.56;4967393;28;20225;-70
2021/01/10 06:03:23;;;;;;;15.25;7.38;;;;;;;-1.04;87.16;97015.94;4967387;28;20284;-69
2021/01/10 06:05:53;;;;;;;18.95;7.88;;;;;;;-1.23;87.04;97019.53;4974776;28;20898;-69
2021/01/10 06:08:28;;;;;;;17.17;7.57;;;;;;;-1.25;87.47;97016.16;4960438;28;20633;-69
2021/01/10 06:10:55;;;;;;;16.08;7.85;;;;;;;-1.13;87.38;97010.91;4969009;28;20261;-69
2021/01/10 06:13:23;;;;;;;23.98;7.93;;;;;;;-1.12;87.72;97007.53;4969021;28;20680;-69
2021/01/10 06:15:49;;;;;;;16.48;8.52;;;;;;;-1.00;87.84;97012.50;4964046;28;20229;-70
2021/01/10 06:18:20;;;;;;;17.70;8.90;;;;;;;-0.95;87.54;97013.28;4972341;28;20707;-69
2021/01/10 06:20:50;;;;;;;16.70;8.75;;;;;;;-0.86;87.10;97010.63;4971449;28;20676;-69
2021/01/10 06:23:27;;;;;;;16.27;7.57;;;;;;;-0.81;87.07;97014.81;4968198;28;20271;-69
2021/01/10 06:25:54;;;;;;;19.83;8.52;;;;;;;-0.75;86.56;97016.47;4968806;28;20890;-69
2021/01/10 06:28:26;;;;;;;15.80;7.30;;;;;;;-0.80;87.07;97008.00;4966797;28;20248;-70
2021/01/10 06:31:01;;;;;;;13.23;7.38;;;;;;;-0.82;87.31;97019.97;4974166;28;20224;-69
2021/01/10 06:33:30;;;;;;;11.65;6.45;;;;;;;-0.77;87.49;97018.19;4969359;28;20618;-73
2021/01/10 06:36:02;;;;;;;13.75;7.43;;;;;;;-0.74;87.16;97015.63;4969347;28;20226;-70
2021/01/10 06:38:33;;;;;;;18.45;7.85;;;;;;;-0.68;86.58;97015.53;4972527;28;20265;-70
2021/01/10 06:41:20;;;;;;;17.42;8.00;;;;;;;-0.76;86.72;97013.06;4973229;28;20607;-70
2021/01/10 06:43:55;;;;;;;12.90;7.13;;;;;;;-0.75;87.08;97008.81;4966847;28;20287;-69
2021/01/10 06:46:24;;;;;;;16.38;7.40;;;;;;;-0.78;86.74;97011.38;4968942;28;20573;-69
2021/01/10 06:48:52;;;;;;;14.43;7.85;;;;;;;-0.70;86.88;97012.13;4972549;28;20621;-70
2021/01/10 06:51:22;;;;;;;22.17;8.80;;;;;;;-0.63;86.71;97014.63;4973896;28;20208;-70
2021/01/10 06:53:49;;;;;;;13.45;7.57;;;;;;;-0.60;86.47;97013.75;4970864;28;20536;-70
2021/01/10 06:56:16;;;;;;;12.02;6.18;;;;;;;-0.60;86.20;97013.75;4966913;28;20682;-69
2021/01/10 06:59:01;;;;;;;13.68;5.93;;;;;;;-0.66;84.78;97008.69;4966181;28;20531;-70
2021/01/10 07:02:01;;;;;;;12.95;6.70;;;;;;;-0.71;85.07;97016.44;4974664;28;20639;-68
2021/01/10 07:04:54;;;;;;;11.65;5.80;;;;;;;-0.61;84.96;97009.50;4968123;28;20229;-70
2021/01/10 07:07:38;;;;;;;11.68;5.25;;;;;;;-0.61;84.49;97005.22;4972311;28;20215;-70
2021/01/10 07:10:24;;;;;;;12.38;5.93;;;;;;;-0.59;83.90;97000.09;4972193;28;20229;-70
2021/01/10 07:12:51;;;;;;;11.07;5.50;;;;;;;-0.49;83.18;97017.00;4965889;28;20656;-69
2021/01/10 07:15:29;;;;;;;9.30;5.00;;;;;;;-0.59;83.09;97012.88;4965274;28;20280;-70
2021/01/10 07:18:10;;;;;;;10.13;5.38;;;;;;;-0.55;82.33;97012.81;4970446;28;20292;-69
2021/01/10 07:20:40;;;;;;;14.38;5.13;;;;;;;-0.49;82.41;97011.88;4972252;28;20222;-70
2021/01/10 07:23:34;;;;;;;7.63;5.00;;;;;;;-0.38;82.39;97017.72;4970717;28;20569;-70
2021/01/10 07:26:02;;;;;;;9.45;5.03;;;;;;;-0.31;82.19;97016.78;4966469;28;20538;-70
2021/01/10 07:28:35;;;;;;;10.38;4.63;;;;;;;-0.23;82.23;97014.97;4971802;28;20610;-69
2021/01/10 07:31:10;;;;;;;10.48;5.35;;;;;;;-0.20;82.15;97020.03;4968910;28;20826;-70
2021/01/10 07:33:38;;;;;;;9.82;5.30;;;;;;;-0.14;82.20;97019.94;4972051;28;20205;-70
2021/01/10 07:36:06;;;;;;;9.27;5.25;;;;;;;-0.09;82.24;97020.72;4969370;28;20656;-74
2021/01/10 07:38:35;;;;;;;9.73;5.28;;;;;;;-0.08;82.78;97024.09;4970044;28;20193;-69
2021/01/10 07:41:30;;;;;;;14.63;6.10;;;;;;;-0.06;83.26;97030.03;4973241;28;20205;-72
2021/01/10 07:43:58;;;;;;;11.30;4.90;;;;;;;0.00;83.13;97029.13;4972165;28;20222;-70
2021/01/10 07:47:02;;;;;;;9.25;4.78;;;;;;;-0.02;82.93;97034.25;4972555;28;20202;-70
2021/01/10 07:49:49;;;;;;;9.60;4.85;;;;;;;-0.02;82.93;97030.84;4967026;28;20288;-71
2021/01/10 07:52:54;;;;;;;14.50;6.90;;;;;;;-0.03;83.06;97030.88;4956254;28;20222;-70
2021/01/10 07:55:29;;;;;;;7.60;5.10;;;;;;;0.05;82.98;97033.31;4966201;28;20305;-69
2021/01/10 07:58:22;;;;;;;8.57;4.65;;;;;;;0.14;82.31;97037.41;4968599;28;20719;-70
2021/01/10 08:00:55;;;;;;;8.93;5.65;;;;;;;0.19;82.23;97033.94;4966141;28;20699;-69
2021/01/10 08:03:23;;;;;;;11.60;5.65;;;;;;;0.20;82.24;97038.19;4970541;28;20233;-69
2021/01/10 08:06:00;;;;;;;13.70;6.25;;;;;;;0.22;82.47;97033.06;4972403;28;20573;-69
2021/01/10 08:08:47;;;;;;;14.73;7.72;;;;;;;0.19;82.52;97040.75;4966831;28;20617;-70
2021/01/10 08:11:29;;;;;;;14.43;7.15;;;;;;;0.13;83.52;97031.47;4970268;28;20606;-69
2021/01/10 08:13:56;;;;;;;16.23;7.40;;;;;;;0.19;83.79;97036.50;4959677;28;20605;-69
2021/01/10 08:16:31;;;;;;;17.80;8.00;;;;;;;0.14;83.98;97043.41;4965942;28;20601;-69
2021/01/10 08:19:04;;;;;;;16.73;7.68;;;;;;;0.16;84.06;97041.66;4968715;28;20640;-70
2021/01/10 08:21:32;;;;;;;12.35;7.35;;;;;;;0.28;84.05;97036.34;4972676;28;20222;-70
2021/01/10 08:24:05;;;;;;;13.48;6.63;;;;;;;0.26;83.77;97039.81;4969841;28;20219;-69
2021/01/10 08:26:37;;;;;;;15.80;7.55;;;;;;;0.33;83.63;97046.53;4971708;28;20754;-69
2021/01/10 08:29:06;;;;;;;12.90;6.78;;;;;;;0.42;83.29;97046.38;4972134;28;20225;-70
2021/01/10 08:31:34;;;;;;;14.57;7.07;;;;;;;0.42;82.48;97038.69;4956669;28;20210;-70
2021/01/10 08:34:13;;;;;;;10.20;5.88;;;;;;;0.37;83.30;97038.78;4955478;28;20650;-70
2021/01/10 08:36:46;;;;;;;13.90;7.00;;;;;;;0.22;82.81;97025.38;4957643;28;20588;-69
2021/01/10 08:39:18;;;;;;;12.48;6.53;;;;;;;0.41;82.90;97035.31;4970762;28;20747;-69
2021/01/10 08:41:47;;;;;;;15.60;6.95;;;;;;;0.52;82.20;97035.97;4962468;28;20198;-69
2021/01/10 08:44:16;;;;;;;13.07;7.70;;;;;;;0.69;81.69;97036.56;4970198;28;20710;-69
2021/01/10 08:46:45;;;;;;;14.70;8.00;;;;;;;0.85;81.39;97029.44;4970866;28;20248;-69
2021/01/10 08:49:15;;;;;;;14.35;6.85;;;;;;;0.63;81.19;97039.22;4966654;28;20620;-69
2021/01/10 08:51:43;;;;;;;14.45;6.13;;;;;;;0.70;82.02;97030.56;4965731;28;20222;-69
2021/01/10 08:54:12;;;;;;;13.30;7.00;;;;;;;1.13;81.51;97035.75;4972907;28;20308;-68
2021/01/10 08:56:40;;;;;;;14.02;7.72;;;;;;;1.29;79.45;97032.88;4972507;28;20232;-69
2021/01/10 08:59:09;;;;;;;14.00;6.60;;;;;;;1.46;79.21;97030.84;4969571;28;20692;-69
2021/01/10 09:01:36;;;;;;;12.13;6.45;;;;;;;1.67;78.48;97029.53;4967670;28;20190;-69
2021/01/10 09:04:09;;;;;;;14.00;6.18;;;;;;;1.70;76.80;97035.47;4971651;28;20264;-68
2021/01/10 09:06:57;;;;;;;10.95;6.22;;;;;;;1.83;76.43;97036.91;4968343;28;20303;-69
2021/01/10 09:09:38;;;;;;;9.63;5.28;;;;;;;2.05;75.36;97043.25;4970091;28;20668;-68
2021/01/10 09:12:11;;;;;;;10.50;6.10;;;;;;;2.27;74.47;97039.34;4966277;28;20209;-69
2021/01/10 09:14:44;;;;;;;12.10;6.72;;;;;;;2.37;74.23;97038.25;4965946;28;20258;-69
2021/01/10 09:17:15;;;;;;;10.73;5.90;;;;;;;2.25;73.27;97030.84;4966142;28;20202;-69
2021/01/10 09:19:43;;;;;;;11.32;5.55;;;;;;;2.06;73.42;97044.94;4962204;28;20689;-68
2021/01/10 09:22:11;;;;;;;9.05;5.57;;;;;;;2.12;73.89;97044.81;4969479;28;20747;-69
2021/01/10 09:24:40;;;;;;;9.90;5.10;;;;;;;2.60;73.31;97038.56;4970248;28;20229;-68
2021/01/10 09:27:10;;;;;;;8.35;5.05;;;;;;;3.11;70.90;97047.56;4970286;28;20558;-68
2021/01/10 09:29:36;;;;;;;12.77;6.63;;;;;;;3.90;69.14;97036.75;4970553;28;20233;-68
2021/01/10 09:32:05;;;;;;;10.82;5.20;;;;;;;4.53;65.48;97045.13;4970085;28;20610;-69
2021/01/10 09:34:32;;;;;;;9.95;5.57;;;;;;;5.06;63.76;97036.50;4968248;28;20547;-73
2021/01/10 09:37:01;;;;;;;9.65;6.07;;;;;;;5.62;63.00;97037.97;4969305;28;20638;-69
2021/01/10 09:39:43;;;;;;;9.80;5.70;;;;;;;5.86;60.21;97039.69;4965367;28;20320;-69
2021/01/10 09:42:12;;;;;;;13.57;6.60;;;;;;;6.83;58.42;97037.59;4970011;28;20199;-69
2021/01/10 09:44:38;;;;;;;9.52;5.82;;;;;;;7.91;56.08;97038.97;4967381;28;20803;-74
2021/01/10 09:47:07;;;;;;;9.95;5.90;;;;;;;7.93;54.63;97046.66;4975002;28;20244;-69
2021/01/10 09:49:34;;;;;;;18.10;9.63;;;;;;;6.65;57.22;97035.78;4964859;28;20344;-69
2021/01/10 09:52:05;;;;;;;10.10;6.05;;;;;;;6.37;58.30;97030.84;4970792;28;20248;-69
2021/01/10 09:54:35;;;;;;;15.63;8.10;;;;;;;6.76;58.10;97036.16;4961696;28;20657;-69
2021/01/10 09:57:16;;;;;;;23.27;10.00;;;;;;;7.45;56.75;97034.09;4976322;28;20824;-69
2021/01/10 09:59:44;;;;;;;14.82;7.60;;;;;;;6.69;56.57;97037.34;4971826;28;20361;-69
2021/01/10 10:02:16;;;;;;;11.32;6.25;;;;;;;6.51;58.15;97038.06;4973922;28;20283;-69
2021/01/10 10:04:45;;;;;;;10.85;6.00;;;;;;;6.47;59.25;97041.69;4966585;28;20873;-68
2021/01/10 10:07:13;;;;;;;9.70;6.22;;;;;;;7.51;55.79;97039.00;4971166;28;20696;-69
2021/01/10 10:09:50;;;;;;;14.88;7.45;;;;;;;8.38;54.65;97033.34;4966165;28;20237;-69
2021/01/10 10:12:18;;;;;;;10.98;5.78;;;;;;;9.39;52.99;97018.84;4968162;28;20663;-69
2021/01/10 10:15:10;;;;;;;11.90;6.77;;;;;;;10.20;49.53;97024.13;4968017;28;20799;-68
2021/01/10 10:17:38;;;;;;;8.43;5.93;;;;;;;9.94;49.56;97020.25;4973218;28;20849;-69
2021/01/10 10:20:08;;;;;;;9.70;6.73;;;;;;;10.46;48.49;97039.16;4967807;28;20885;-69
2021/01/10 10:22:36;;;;;;;9.00;5.70;;;;;;;9.71;48.84;97033.63;4973760;28;20551;-69
2021/01/10 10:25:06;;;;;;;12.93;6.83;;;;;;;9.20;50.02;97035.41;4969597;28;20887;-69
2021/01/10 10:27:34;;;;;;;9.70;6.30;;;;;;;8.96;51.68;97013.25;4969293;28;20991;-69
2021/01/10 10:30:02;;;;;;;10.20;6.20;;;;;;;9.59;49.61;97010.84;4973479;28;20794;-69
2021/01/10 10:32:29;;;;;;;8.87;5.30;;;;;;;9.96;50.01;97007.19;4973204;28;20556;-69
2021/01/10 10:34:56;;;;;;;9.97;5.80;;;;;;;10.63;47.08;97011.28;4974527;28;20989;-69
2021/01/10 10:37:23;;;;;;;10.10;5.50;;;;;;;11.01;47.43;97003.91;4968575;28;20462;-69
2021/01/10 10:39:50;;;;;;;9.80;5.77;;;;;;;11.06;46.16;97010.53;4969480;28;20494;-70
2021/01/10 10:42:18;;;;;;;11.53;6.83;;;;;;;11.50;45.99;97006.19;4969750;28;20452;-69
2021/01/10 10:44:46;;;;;;;7.40;5.27;;;;;;;11.81;45.61;97000.03;4966707;28;21026;-69
2021/01/10 10:47:16;;;;;;;12.63;6.83;;;;;;;11.96;45.36;97004.31;4976020;28;20990;-74
2021/01/10 10:49:44;;;;;;;10.47;6.10;;;;;;;12.42;44.77;96996.16;4958206;28;20983;-70
2021/01/10 10:52:12;;;;;;;9.80;6.10;;;;;;;12.31;44.85;96989.94;4966743;28;20979;-71
2021/01/10 10:54:40;;;;;;;9.13;5.50;;;;;;;11.95;44.66;96969.56;4970701;28;20535;-69
2021/01/10 10:57:07;;;;;;;9.87;6.20;;;;;;;12.16;44.37;96981.28;4974456;28;20447;-74
2021/01/10 10:59:34;;;;;;;11.80;7.20;;;;;;;12.81;43.57;96983.16;4973420;28;20898;-74
2021/01/10 11:02:03;;;;;;;8.17;5.90;;;;;;;12.68;44.23;96974.47;4968100;28;20456;-74
2021/01/10 11:04:30;;;;;;;8.67;5.50;;;;;;;12.74;43.03;96974.06;4968821;28;20834;-74
2021/01/10 11:06:58;;;;;;;8.00;5.33;;;;;;;12.57;43.65;96976.91;4967237;28;20520;-74
2021/01/10 11:09:25;;;;;;;15.90;7.77;;;;;;;12.60;42.91;96981.09;4973268;28;20501;-74
2021/01/10 11:11:52;;;;;;;7.70;5.53;;;;;;;12.27;44.42;96976.25;4968687;28;20465;-74
2021/01/10 11:14:19;;;;;;;10.57;6.90;;;;;;;12.22;43.75;96970.47;4976623;28;20468;-71
2021/01/10 11:16:49;;;;;;;7.30;5.30;;;;;;;12.38;44.51;96968.56;4967918;28;20448;-72
2021/01/10 11:19:24;;;;;;;8.70;5.00;;;;;;;12.76;43.71;96966.97;4967618;28;20472;-72
2021/01/10 11:21:52;;;;;;;8.70;5.50;;;;;;;12.01;43.86;96961.34;4961960;28;21000;-72
2021/01/10 11:24:19;;;;;;;8.60;5.80;;;;;;;11.31;45.68;96963.91;4965942;28;20464;-72
2021/01/10 11:26:46;;;;;;;9.27;5.70;;;;;;;11.10;45.63;96954.75;4972687;28;20488;-74
2021/01/10 11:29:14;;;;;;;9.37;5.63;;;;;;;11.40;45.73;96952.94;4971657;28;20464;-75
2021/01/10 11:31:42;;;;;;;10.00;6.30;;;;;;;11.38;45.36;96946.97;4970531;28;20472;-74
2021/01/10 11:34:13;;;;;;;8.80;5.90;;;;;;;11.23;46.02;96949.63;4969942;28;20962;-73
2021/01/10 11:36:42;;;;;;;8.03;5.27;;;;;;;10.50;46.11;96940.03;4969589;28;20989;-73
2021/01/10 11:39:10;;;;;;;9.40;4.80;;;;;;;10.61;47.25;96945.44;4974136;28;20740;-72
2021/01/10 11:41:38;;;;;;;8.93;5.07;;;;;;;10.35;46.76;96943.47;4968685;28;20445;-73
2021/01/10 11:44:05;;;;;;;7.30;5.40;;;;;;;11.03;47.12;96937.78;4971594;28;20947;-72
2021/01/10 11:46:32;;;;;;;7.80;5.20;;;;;;;11.68;46.12;96939.09;4971999;28;20458;-72